Time;durP1;ratioP1;P1;durP2;ratioP2;P2;SDS_P1;SDS_P2;PMS_P1;PMS_P2;Temp;Humidity;BMP_temperature;BMP_pressure;BME280_temperature;BME280_humidity;BME280_pressure;Samples;Min_cycle;Max_cycle;Signal;HPM_P1;HPM_P2
2022/09/11 00:01:28;;;;;;;15.95;10.90;;;;;;;16.41;100.00;101622.88;5074493;28;20453;-55
2022/09/11 00:03:56;;;;;;;16.05;11.35;;;;;;;16.41;100.00;101628.38;5063926;28;20072;-53
2022/09/11 00:06:25;;;;;;;15.43;11.57;;;;;;;16.40;100.00;101621.22;5073941;28;20040;-53
2022/09/11 00:08:59;;;;;;;15.25;11.43;;;;;;;16.40;100.00;101611.06;5075826;28;20432;-54
2022/09/11 00:11:30;;;;;;;16.77;11.88;;;;;;;16.40;100.00;101621.22;5073542;28;20036;-55
2022/09/11 00:13:58;;;;;;;19.15;12.10;;;;;;;16.40;100.00;101610.22;5068063;28;20048;-51
2022/09/11 00:16:34;;;;;;;15.68;12.00;;;;;;;16.38;100.00;101604.19;5071122;28;20619;-57
2022/09/11 00:19:03;;;;;;;;;;;;;;;16.40;100.00;101604.72;5056223;28;20033;-55
2022/09/11 00:21:30;;;;;;;16.60;11.48;;;;;;;16.42;100.00;101601.69;5069800;28;19921;-55
2022/09/11 00:23:58;;;;;;;18.80;12.25;;;;;;;16.42;100.00;101605.25;5067703;28;20048;-55
2022/09/11 00:26:26;;;;;;;16.42;11.55;;;;;;;16.43;100.00;101604.16;5071779;28;20449;-56
2022/09/11 00:28:54;;;;;;;15.88;11.35;;;;;;;16.44;100.00;101605.78;5064155;28;20055;-56
2022/09/11 00:31:24;;;;;;;16.92;12.30;;;;;;;16.45;100.00;101610.19;5061365;28;20450;-55
2022/09/11 00:33:52;;;;;;;16.63;12.20;;;;;;;16.42;100.00;101612.69;5067079;28;20040;-52
2022/09/11 00:36:27;;;;;;;15.82;11.93;;;;;;;16.39;100.00;101611.34;5077429;28;20565;-55
2022/09/11 00:38:56;;;;;;;16.63;12.75;;;;;;;16.37;100.00;101621.78;5057755;28;20052;-56
2022/09/11 00:41:33;;;;;;;15.40;11.57;;;;;;;16.35;100.00;101616.56;5078779;28;20048;-56
2022/09/11 00:44:10;;;;;;;17.70;12.05;;;;;;;16.35;100.00;101615.75;5080213;28;20052;-57
2022/09/11 00:46:53;;;;;;;18.02;12.73;;;;;;;16.34;100.00;101616.88;5078146;28;20051;-56
2022/09/11 00:49:24;;;;;;;18.15;12.80;;;;;;;16.29;100.00;101606.75;5057528;28;20049;-57
2022/09/11 00:51:59;;;;;;;16.98;13.45;;;;;;;16.28;100.00;101618.00;5078601;28;20448;-56
2022/09/11 00:54:31;;;;;;;15.13;12.55;;;;;;;16.27;100.00;101622.69;5080558;28;20510;-57
2022/09/11 00:57:01;;;;;;;16.67;12.65;;;;;;;16.27;100.00;101614.44;5059330;28;20047;-57
2022/09/11 00:59:30;;;;;;;17.10;12.15;;;;;;;16.25;100.00;101618.59;5073947;28;20076;-55
2022/09/11 01:01:57;;;;;;;15.98;13.13;;;;;;;16.26;100.00;101612.81;5074176;28;20040;-58
2022/09/11 01:04:28;;;;;;;18.50;12.77;;;;;;;16.25;100.00;101621.34;5073705;28;20040;-55
2022/09/11 01:06:56;;;;;;;20.27;13.55;;;;;;;16.25;100.00;101624.09;5072509;28;20048;-54
2022/09/11 01:09:26;;;;;;;17.10;13.02;;;;;;;16.25;100.00;101630.41;5073842;28;20041;-55
2022/09/11 01:11:59;;;;;;;20.40;13.88;;;;;;;16.23;100.00;101629.88;5073569;28;20502;-53
2022/09/11 01:14:35;;;;;;;20.08;13.15;;;;;;;16.21;100.00;101632.09;5071664;28;20052;-56
2022/09/11 01:17:26;;;;;;;17.60;12.70;;;;;;;16.21;100.00;101626.63;5063093;28;20045;-56
2022/09/11 01:20:05;;;;;;;18.55;14.57;;;;;;;16.18;100.00;101635.41;5074739;28;20048;-58
2022/09/11 01:23:18;;;;;;;19.92;13.07;;;;;;;16.15;100.00;101631.31;5059333;28;20044;-56
2022/09/11 01:26:21;;;;;;;15.88;12.60;;;;;;;16.15;100.00;101636.81;5072072;28;20051;-53
2022/09/11 01:28:57;;;;;;;18.92;13.52;;;;;;;16.15;100.00;101630.50;5064212;28;20044;-55
2022/09/11 01:31:32;;;;;;;18.75;13.13;;;;;;;16.15;100.00;101628.56;5053047;28;20095;-55
2022/09/11 01:34:25;;;;;;;17.42;12.75;;;;;;;16.14;100.00;101635.19;5055420;28;20044;-56
2022/09/11 01:36:56;;;;;;;16.67;12.93;;;;;;;16.14;100.00;101632.44;5050558;28;20450;-52
2022/09/11 01:39:30;;;;;;;18.92;13.27;;;;;;;16.14;100.00;101640.66;5068248;28;20487;-55
2022/09/11 01:42:03;;;;;;;18.02;13.40;;;;;;;16.13;100.00;101643.69;5074467;28;20052;-55
2022/09/11 01:44:38;;;;;;;20.35;14.00;;;;;;;16.10;100.00;101645.09;5061296;28;20163;-55
2022/09/11 01:47:09;;;;;;;19.85;13.35;;;;;;;16.09;100.00;101648.13;5061357;28;20036;-55
2022/09/11 01:50:10;;;;;;;20.33;13.10;;;;;;;16.06;100.00;101651.44;5037396;28;20056;-57
2022/09/11 01:53:08;;;;;;;17.63;13.70;;;;;;;16.05;100.00;101653.38;5052740;28;20482;-54
2022/09/11 01:55:48;;;;;;;17.88;13.45;;;;;;;16.06;100.00;101655.00;5038253;28;20053;-56
2022/09/11 01:58:29;;;;;;;19.77;13.80;;;;;;;16.04;100.00;101654.47;5072709;28;20052;-57
2022/09/11 02:01:06;;;;;;;18.30;13.57;;;;;;;16.02;100.00;101664.94;5072250;28;20032;-56
2022/09/11 02:03:37;;;;;;;17.30;13.63;;;;;;;16.00;100.00;101661.66;5050358;28;20407;-57
2022/09/11 02:06:17;;;;;;;15.68;13.15;;;;;;;15.99;100.00;101671.00;5066049;28;20040;-56
2022/09/11 02:08:54;;;;;;;17.77;13.35;;;;;;;15.99;100.00;101665.50;5066986;28;20059;-58
2022/09/11 02:11:25;;;;;;;16.13;13.35;;;;;;;15.98;100.00;101664.69;5072656;28;20053;-56
2022/09/11 02:14:10;;;;;;;20.02;13.85;;;;;;;15.95;100.00;101661.69;5053984;28;20041;-56
2022/09/11 02:16:45;;;;;;;19.33;13.77;;;;;;;15.94;100.00;101651.78;5067642;28;20063;-54
2022/09/11 02:19:19;;;;;;;19.80;14.25;;;;;;;15.92;100.00;101656.75;5049398;28;20399;-56
2022/09/11 02:21:47;;;;;;;20.13;14.63;;;;;;;15.91;100.00;101658.66;5073482;28;20048;-56
2022/09/11 02:24:16;;;;;;;17.95;14.35;;;;;;;15.88;100.00;101659.25;5053840;28;20052;-56
2022/09/11 02:26:57;;;;;;;17.63;13.38;;;;;;;15.88;100.00;101658.44;5053564;28;20071;-57
2022/09/11 02:29:25;;;;;;;17.63;13.82;;;;;;;15.88;100.00;101658.44;5070455;28;20033;-52
2022/09/11 02:31:54;;;;;;;17.77;14.13;;;;;;;15.88;100.00;101663.94;5055362;28;20040;-54
2022/09/11 02:34:28;;;;;;;19.38;14.75;;;;;;;15.90;100.00;101661.72;5063647;28;20079;-53
2022/09/11 02:37:06;;;;;;;19.85;15.20;;;;;;;15.92;100.00;101656.75;5055033;28;20496;-53
2022/09/11 02:39:36;;;;;;;20.48;15.90;;;;;;;15.93;100.00;101656.47;5030496;28;20070;-55
2022/09/11 02:42:30;;;;;;;20.05;15.70;;;;;;;15.93;100.00;101661.97;5072012;28;20040;-52
2022/09/11 02:45:03;;;;;;;20.42;15.85;;;;;;;15.91;100.00;101666.09;5054307;28;20052;-52
2022/09/11 02:47:40;;;;;;;20.38;17.10;;;;;;;15.87;100.00;101662.25;5037975;28;20060;-53
2022/09/11 02:50:26;;;;;;;21.25;17.00;;;;;;;15.84;100.00;101669.16;5065837;28;20052;-54
2022/09/11 02:53:23;;;;;;;21.95;16.00;;;;;;;15.82;100.00;101676.03;5071365;28;20091;-52
2022/09/11 02:56:21;;;;;;;19.27;14.93;;;;;;;15.80;100.00;101678.25;5070518;28;20044;-54
2022/09/11 02:59:16;;;;;;;21.98;16.33;;;;;;;15.80;100.00;101679.06;5067258;28;20051;-56
2022/09/11 03:01:51;;;;;;;18.33;15.75;;;;;;;15.80;100.00;101679.06;5053010;28;20441;-56
2022/09/11 03:04:23;;;;;;;21.95;16.55;;;;;;;15.79;100.00;101665.63;5052456;28;20052;-56
2022/09/11 03:06:53;;;;;;;19.25;15.27;;;;;;;15.81;100.00;101680.72;5052884;28;20033;-54
2022/09/11 03:09:21;;;;;;;21.85;16.35;;;;;;;15.83;100.00;101674.94;5049643;28;20037;-55
2022/09/11 03:11:53;;;;;;;20.60;16.70;;;;;;;15.83;100.00;101680.44;5050817;28;20051;-52
2022/09/11 03:14:21;;;;;;;19.38;15.82;;;;;;;15.82;100.00;101678.78;5054966;28;20397;-53
2022/09/11 03:16:50;;;;;;;17.73;15.55;;;;;;;15.79;100.00;101676.59;5056426;28;20052;-55
2022/09/11 03:19:19;;;;;;;18.90;15.90;;;;;;;15.76;100.00;101681.56;5071136;28;20120;-56
2022/09/11 03:21:47;;;;;;;19.30;15.70;;;;;;;15.75;100.00;101685.44;5042575;28;20511;-57
2022/09/11 03:24:15;;;;;;;22.73;15.85;;;;;;;15.76;100.00;101678.81;5071058;28;20064;-57
2022/09/11 03:26:44;;;;;;;19.85;16.05;;;;;;;15.76;100.00;101678.81;5073895;28;20052;-57
2022/09/11 03:29:12;;;;;;;21.67;15.55;;;;;;;15.78;100.00;101678.53;5061721;28;20396;-57
2022/09/11 03:31:42;;;;;;;17.40;15.27;;;;;;;15.76;100.00;101680.75;5071426;28;20048;-55
2022/09/11 03:34:11;;;;;;;18.13;14.57;;;;;;;15.72;100.00;101683.22;5059285;28;20037;-55
2022/09/11 03:36:39;;;;;;;17.65;15.00;;;;;;;15.67;100.00;101687.91;5052101;28;20033;-53
2022/09/11 03:39:07;;;;;;;17.35;14.90;;;;;;;15.62;100.00;101682.44;5076672;28;20388;-55
2022/09/11 03:41:35;;;;;;;17.38;14.63;;;;;;;15.57;100.00;101688.75;5075287;28;20135;-57
2022/09/11 03:44:04;;;;;;;17.45;14.40;;;;;;;15.54;100.00;101690.16;5054517;28;20039;-53
2022/09/11 03:46:32;;;;;;;15.30;13.65;;;;;;;15.50;100.00;101686.31;5071080;28;20470;-53
2022/09/11 03:49:00;;;;;;;15.80;13.57;;;;;;;15.49;100.00;101694.81;5055351;28;20388;-53
2022/09/11 03:51:30;;;;;;;15.88;13.65;;;;;;;15.49;100.00;101692.06;5073581;28;20036;-56
2022/09/11 03:54:02;;;;;;;16.90;13.77;;;;;;;15.48;100.00;101690.44;5058043;28;20036;-55
2022/09/11 03:56:31;;;;;;;17.80;14.43;;;;;;;15.46;100.00;101690.69;5058734;28;20113;-54
2022/09/11 03:58:59;;;;;;;17.73;13.35;;;;;;;15.46;100.00;101693.44;5073076;28;20533;-57
2022/09/11 04:01:27;;;;;;;15.32;12.60;;;;;;;15.42;100.00;101689.63;5074322;28;20596;-58
2022/09/11 04:03:56;;;;;;;13.05;11.52;;;;;;;15.41;100.00;101695.41;5073606;28;20094;-57
2022/09/11 04:06:32;;;;;;;14.27;11.95;;;;;;;15.40;100.00;101694.59;5074632;28;20036;-52
2022/09/11 04:09:00;;;;;;;13.32;11.10;;;;;;;15.42;100.00;101697.06;5062436;28;20052;-55
2022/09/11 04:11:29;;;;;;;15.45;11.70;;;;;;;15.42;100.00;101702.56;5065330;28;20044;-54
2022/09/11 04:14:03;;;;;;;12.32;10.73;;;;;;;15.40;100.00;101702.00;5074509;28;20040;-56
2022/09/11 04:16:32;;;;;;;12.00;9.98;;;;;;;15.38;100.00;101707.75;5073744;28;20116;-56
2022/09/11 04:19:01;;;;;;;11.60;9.82;;;;;;;15.37;100.00;101706.13;5054533;28;20041;-55
2022/09/11 04:21:29;;;;;;;12.45;9.32;;;;;;;15.37;100.00;101708.03;5061920;28;20036;-53
2022/09/11 04:23:59;;;;;;;11.90;9.80;;;;;;;15.40;100.00;101708.31;5061530;28;20503;-57
2022/09/11 04:26:30;;;;;;;11.55;9.50;;;;;;;15.41;100.00;101698.16;5074124;28;20053;-55
2022/09/11 04:29:08;;;;;;;11.80;9.77;;;;;;;15.42;100.00;101691.56;5072151;28;20555;-52
2022/09/11 04:31:37;;;;;;;13.05;10.57;;;;;;;15.45;100.00;101691.00;5075809;28;20490;-54
2022/09/11 04:34:06;;;;;;;12.18;9.98;;;;;;;15.45;100.00;101693.75;5065686;28;20048;-57
2022/09/11 04:36:36;;;;;;;13.02;10.40;;;;;;;15.43;100.00;101695.94;5073641;28;20049;-56
2022/09/11 04:39:05;;;;;;;11.50;9.73;;;;;;;15.42;100.00;101710.78;5071879;28;20052;-55
2022/09/11 04:41:34;;;;;;;12.93;10.57;;;;;;;15.43;100.00;101704.19;5071911;28;20047;-55
2022/09/11 04:44:02;;;;;;;12.98;10.48;;;;;;;15.43;100.00;101712.41;5074396;28;20051;-54
2022/09/11 04:46:37;;;;;;;12.32;10.80;;;;;;;15.41;100.00;101704.44;5069451;28;20490;-54
2022/09/11 04:49:10;;;;;;;13.85;10.85;;;;;;;15.41;100.00;101698.97;5074113;28;20041;-55
2022/09/11 04:51:40;;;;;;;14.25;11.75;;;;;;;15.40;100.00;101699.25;5053265;28;20056;-54
2022/09/11 04:54:16;;;;;;;12.38;10.60;;;;;;;15.38;100.00;101706.94;5068045;28;20043;-57
2022/09/11 04:56:45;;;;;;;13.93;10.85;;;;;;;15.36;100.00;101709.16;5052693;28;20503;-56
2022/09/11 04:59:16;;;;;;;11.90;10.23;;;;;;;15.36;100.00;101700.91;5063722;28;20139;-54
2022/09/11 05:01:48;;;;;;;14.43;11.00;;;;;;;15.33;100.00;101708.59;5073936;28;20101;-55
2022/09/11 05:04:19;;;;;;;12.98;10.80;;;;;;;15.32;100.00;101706.97;5075251;28;20051;-54
2022/09/11 05:06:54;;;;;;;12.52;10.88;;;;;;;15.28;100.00;101710.53;5076376;28;20052;-55
2022/09/11 05:09:22;;;;;;;12.25;10.68;;;;;;;15.23;100.00;101703.13;5082923;28;20108;-55
2022/09/11 05:11:49;;;;;;;12.20;10.55;;;;;;;15.19;100.00;101710.28;5073351;28;20127;-53
2022/09/11 05:14:17;;;;;;;10.93;9.43;;;;;;;15.19;100.00;101703.97;5074803;28;20380;-52
2022/09/11 05:16:48;;;;;;;10.25;8.45;;;;;;;15.19;100.00;101713.03;5073621;28;20398;-52
2022/09/11 05:19:18;;;;;;;9.65;7.97;;;;;;;15.16;100.00;101715.50;5070192;28;20403;-56
2022/09/11 05:21:47;;;;;;;9.50;7.28;;;;;;;15.10;100.00;101720.16;5055941;28;20043;-54
2022/09/11 05:24:15;;;;;;;9.20;7.20;;;;;;;15.10;100.00;101722.91;5069406;28;20507;-57
2022/09/11 05:26:43;;;;;;;9.77;8.13;;;;;;;15.10;100.00;101726.50;5073152;28;20040;-51
2022/09/11 05:29:13;;;;;;;8.63;7.05;;;;;;;15.08;100.00;101733.34;5073063;28;20101;-52
2022/09/11 05:31:46;;;;;;;9.73;7.47;;;;;;;15.02;100.00;101734.47;5070992;28;20452;-51
2022/09/11 05:34:17;;;;;;;9.70;7.97;;;;;;;15.02;100.00;101734.47;5067075;28;20393;-57
2022/09/11 05:36:45;;;;;;;10.18;8.23;;;;;;;14.97;100.00;101746.25;5039282;28;20051;-52
2022/09/11 05:39:13;;;;;;;9.77;8.25;;;;;;;14.96;100.00;101752.00;5072773;28;20094;-54
2022/09/11 05:41:41;;;;;;;10.65;7.53;;;;;;;14.93;100.00;101752.56;5072887;28;20045;-52
2022/09/11 05:44:09;;;;;;;10.05;7.68;;;;;;;14.91;100.00;101764.66;5049630;28;20036;-55
2022/09/11 05:46:37;;;;;;;10.50;7.25;;;;;;;14.90;100.00;101768.47;5056571;28;20033;-54
2022/09/11 05:49:06;;;;;;;10.38;7.90;;;;;;;14.93;100.00;101763.53;5070990;28;20094;-56
2022/09/11 05:51:36;;;;;;;11.57;7.13;;;;;;;14.93;100.00;101764.34;5072528;28;20036;-54
2022/09/11 05:54:05;;;;;;;8.43;6.68;;;;;;;14.94;100.00;101771.50;5069019;28;20048;-55
2022/09/11 05:56:35;;;;;;;7.72;6.20;;;;;;;14.90;100.00;101773.97;5072318;28;20041;-56
2022/09/11 05:59:13;;;;;;;8.60;6.63;;;;;;;14.93;100.00;101780.00;5072708;28;20066;-57
2022/09/11 06:01:42;;;;;;;8.15;6.40;;;;;;;14.93;100.00;101774.53;5055261;28;20041;-54
2022/09/11 06:04:30;;;;;;;8.68;6.70;;;;;;;14.94;100.00;101782.50;5071824;28;20036;-52
2022/09/11 06:06:59;;;;;;;8.18;6.50;;;;;;;14.98;100.00;101782.75;5055675;28;20043;-55
2022/09/11 06:09:28;;;;;;;9.07;6.80;;;;;;;15.04;100.00;101787.16;5052732;28;20384;-54
2022/09/11 06:11:56;;;;;;;8.60;6.40;;;;;;;15.04;100.00;101796.22;5035400;28;20056;-55
2022/09/11 06:14:24;;;;;;;9.02;6.70;;;;;;;15.00;100.00;101797.84;5061036;28;20045;-54
2022/09/11 06:16:56;;;;;;;8.18;6.32;;;;;;;14.99;100.00;101800.88;5054047;28;20037;-54
2022/09/11 06:19:25;;;;;;;8.38;6.28;;;;;;;14.98;100.00;101804.72;5071820;28;20040;-58
2022/09/11 06:21:55;;;;;;;8.38;6.22;;;;;;;14.99;100.00;101798.13;5071811;28;20402;-54
2022/09/11 06:24:27;;;;;;;10.48;6.20;;;;;;;15.04;100.00;101803.63;5070014;28;20368;-58
2022/09/11 06:26:56;;;;;;;8.15;6.15;;;;;;;15.09;100.00;101806.38;5062904;28;20064;-53
2022/09/11 06:29:26;;;;;;;7.87;6.10;;;;;;;15.13;100.00;101801.97;4370423;28;10000697;-57
2022/09/11 06:31:54;;;;;;;7.25;5.55;;;;;;;15.17;100.00;101797.56;5032568;28;20055;-59
2022/09/11 06:34:26;;;;;;;6.80;5.40;;;;;;;15.18;100.00;101804.72;5065119;28;20043;-57
2022/09/11 06:36:57;;;;;;;7.20;5.45;;;;;;;15.23;100.00;101810.22;5058413;28;20482;-57
2022/09/11 06:39:25;;;;;;;8.48;6.32;;;;;;;15.24;100.00;101809.09;5057119;28;20037;-59
2022/09/11 06:41:54;;;;;;;8.27;6.18;;;;;;;15.23;100.00;101806.66;5068738;28;20043;-59
2022/09/11 06:44:29;;;;;;;10.02;7.35;;;;;;;15.25;100.00;101815.41;5068479;28;20059;-56
2022/09/11 06:46:59;;;;;;;9.10;7.45;;;;;;;15.23;100.00;101820.38;5057686;28;20044;-59
2022/09/11 06:49:27;;;;;;;10.88;8.02;;;;;;;15.22;100.00;101822.28;5065542;28;20051;-58
2022/09/11 06:52:13;;;;;;;10.13;7.43;;;;;;;15.24;100.00;101819.25;5053768;28;20675;-59
2022/09/11 06:54:49;;;;;;;10.70;8.50;;;;;;;15.26;100.00;101822.56;5068939;28;20049;-60
2022/09/11 06:57:18;;;;;;;10.43;8.00;;;;;;;15.28;100.00;101828.59;5050331;28;20302;-60
2022/09/11 06:59:46;;;;;;;15.90;9.35;;;;;;;15.30;100.00;101829.16;5068553;28;20040;-59
2022/09/11 07:02:16;;;;;;;12.02;8.93;;;;;;;15.30;100.00;101829.16;5051592;28;20747;-57
2022/09/11 07:04:46;;;;;;;10.45;8.52;;;;;;;15.30;100.00;101824.47;5039467;28;20047;-60
2022/09/11 07:07:14;;;;;;;10.23;8.25;;;;;;;15.33;100.00;101829.41;5068246;28;20048;-60
2022/09/11 07:09:42;;;;;;;12.82;10.00;;;;;;;15.37;100.00;101826.13;5043129;28;20064;-60
2022/09/11 07:12:11;;;;;;;14.45;10.80;;;;;;;15.38;100.00;101819.53;5044983;28;20044;-60
2022/09/11 07:14:40;;;;;;;13.00;10.38;;;;;;;15.38;100.00;101827.78;5048183;28;20056;-61
2022/09/11 07:17:14;;;;;;;12.45;10.25;;;;;;;15.37;100.00;101829.72;5066046;28;20041;-58
2022/09/11 07:19:43;;;;;;;12.00;9.68;;;;;;;15.37;100.00;101820.63;5048459;28;20055;-58
2022/09/11 07:22:13;;;;;;;14.10;10.80;;;;;;;15.37;100.00;101826.97;5053548;28;20033;-61
2022/09/11 07:24:41;;;;;;;13.55;11.07;;;;;;;15.37;100.00;101818.72;5068708;28;20405;-57
2022/09/11 07:27:12;;;;;;;14.43;11.60;;;;;;;15.38;100.00;101822.28;5068825;28;20040;-59
2022/09/11 07:29:40;;;;;;;11.57;9.23;;;;;;;15.40;100.00;101820.09;5055465;28;20044;-59
2022/09/11 07:32:08;;;;;;;11.63;8.70;;;;;;;15.45;100.00;101820.91;5068376;28;20045;-60
2022/09/11 07:34:38;;;;;;;14.38;9.48;;;;;;;15.48;100.00;101825.00;5059508;28;20052;-60
2022/09/11 07:37:09;;;;;;;11.32;8.18;;;;;;;15.53;100.00;101825.00;5058791;28;20052;-60
2022/09/11 07:39:38;;;;;;;11.43;8.80;;;;;;;15.55;100.00;101825.56;5071388;28;20043;-57
2022/09/11 07:42:11;;;;;;;12.45;8.60;;;;;;;15.60;100.00;101828.28;5053300;28;20044;-59
2022/09/11 07:44:41;;;;;;;13.90;10.48;;;;;;;15.62;100.00;101826.09;5079687;28;20036;-60
2022/09/11 07:47:09;;;;;;;13.13;9.55;;;;;;;15.61;100.00;101823.63;5068251;28;20041;-59
2022/09/11 07:49:42;;;;;;;12.88;9.00;;;;;;;15.60;100.00;101830.22;5062697;28;20041;-59
2022/09/11 07:52:10;;;;;;;14.27;10.30;;;;;;;15.60;100.00;101833.78;5070412;28;20452;-58
2022/09/11 07:54:49;;;;;;;14.20;10.88;;;;;;;15.62;100.00;101837.09;5051813;28;20044;-58
2022/09/11 07:57:18;;;;;;;16.17;12.65;;;;;;;15.62;100.00;101837.09;5063588;28;20041;-59
2022/09/11 07:59:46;;;;;;;18.42;14.80;;;;;;;15.63;100.00;101840.66;5050418;28;20090;-59
2022/09/11 08:02:16;;;;;;;16.52;12.70;;;;;;;15.63;100.00;101837.91;5061897;28;20036;-59
2022/09/11 08:04:44;;;;;;;17.50;11.23;;;;;;;15.69;100.00;101836.81;5055563;28;20052;-57
2022/09/11 08:07:13;;;;;;;16.48;12.20;;;;;;;15.76;100.00;101843.69;5072832;28;20053;-58
2022/09/11 08:09:41;;;;;;;17.25;11.63;;;;;;;15.83;100.00;101848.09;5076157;28;20045;-57
2022/09/11 08:12:10;;;;;;;19.88;14.85;;;;;;;15.86;100.00;101842.03;5074667;28;20054;-60
2022/09/11 08:14:39;;;;;;;16.35;12.45;;;;;;;15.88;100.00;101845.31;5071151;28;20050;-56
2022/09/11 08:17:13;;;;;;;16.77;13.30;;;;;;;15.89;100.00;101852.44;5059708;28;20084;-56
2022/09/11 08:19:41;;;;;;;17.73;13.48;;;;;;;15.90;100.00;101852.19;5038768;28;20041;-58
2022/09/11 08:22:09;;;;;;;18.60;13.77;;;;;;;15.89;100.00;101852.44;5070278;28;20052;-60
2022/09/11 08:24:42;;;;;;;17.52;13.02;;;;;;;15.95;100.00;101860.41;4721763;28;9999769;-60
2022/09/11 08:27:13;;;;;;;24.13;20.25;;;;;;;15.95;100.00;101863.16;5035732;28;20048;-59
2022/09/11 08:29:42;;;;;;;23.85;20.55;;;;;;;15.95;100.00;101860.41;5034927;28;20043;-56
2022/09/11 08:32:12;;;;;;;22.17;19.20;;;;;;;15.94;100.00;101863.44;5071770;28;20053;-60
2022/09/11 08:34:40;;;;;;;26.05;20.75;;;;;;;15.96;100.00;101864.78;5071086;28;20048;-58
2022/09/11 08:37:08;;;;;;;26.17;21.80;;;;;;;15.97;100.00;101866.47;5066612;28;20048;-60
2022/09/11 08:39:36;;;;;;;30.63;23.20;;;;;;;15.97;100.00;101871.13;5068715;28;20036;-58
2022/09/11 08:42:15;;;;;;;24.75;20.75;;;;;;;15.95;100.00;101871.41;5034537;28;20406;-59
2022/09/11 08:44:54;;;;;;;25.23;21.45;;;;;;;15.94;100.00;101878.00;5037850;28;20048;-57
2022/09/11 08:47:30;;;;;;;25.27;21.00;;;;;;;15.98;100.00;101876.34;5030757;28;20056;-58
2022/09/11 08:50:22;;;;;;;22.13;18.20;;;;;;;16.05;100.00;101881.56;5051643;28;20444;-58
2022/09/11 08:52:53;;;;;;;21.75;18.33;;;;;;;16.12;100.00;101875.75;5044908;28;20047;-59
2022/09/11 08:55:59;;;;;;;23.92;21.00;;;;;;;16.19;100.00;101879.88;5054441;28;20050;-58
2022/09/11 08:58:40;;;;;;;15.35;12.25;;;;;;;16.33;100.00;101884.75;5063659;28;20057;-59
2022/09/11 09:01:11;;;;;;;15.45;11.82;;;;;;;16.43;100.00;101887.47;5050878;28;20037;-59
2022/09/11 09:04:12;;;;;;;17.40;13.30;;;;;;;16.52;100.00;101885.75;5063649;28;20051;-59
2022/09/11 09:07:08;;;;;;;17.30;13.70;;;;;;;16.51;100.00;101881.38;5038675;28;20061;-56
2022/09/11 09:10:30;;;;;;;20.40;15.93;;;;;;;16.47;100.00;101884.97;5044932;28;20161;-59
2022/09/11 09:13:04;;;;;;;19.45;15.10;;;;;;;16.46;100.00;101880.59;5044061;28;20056;-58
2022/09/11 09:15:52;;;;;;;23.10;19.33;;;;;;;16.46;100.00;101880.59;5073222;28;20097;-58
2022/09/11 09:18:32;;;;;;;23.77;20.77;;;;;;;16.45;100.00;101885.28;5048805;28;20513;-57
2022/09/11 09:21:03;;;;;;;23.52;19.02;;;;;;;16.43;100.00;101879.22;5067592;28;20035;-59
2022/09/11 09:23:50;;;;;;;20.67;15.95;;;;;;;16.43;100.00;101884.72;5071723;28;20040;-59
2022/09/11 09:26:18;;;;;;;23.00;19.33;;;;;;;16.44;100.00;101880.88;5053216;28;20041;-59
2022/09/11 09:28:50;;;;;;;22.92;18.40;;;;;;;16.45;100.00;101893.53;5062222;28;20094;-60
2022/09/11 09:31:26;;;;;;;22.35;17.27;;;;;;;16.50;100.00;101896.25;5052271;28;20033;-59
2022/09/11 09:34:05;;;;;;;13.02;10.25;;;;;;;16.53;100.00;101895.69;5070213;28;20445;-58
2022/09/11 09:36:38;;;;;;;16.50;10.80;;;;;;;16.67;100.00;101892.31;5069829;28;20048;-59
2022/09/11 09:39:13;;;;;;;28.20;20.60;;;;;;;16.74;100.00;101890.06;5061722;28;20102;-57
2022/09/11 09:42:03;;;;;;;24.52;19.85;;;;;;;16.76;100.00;101896.13;5067271;28;20529;-56
2022/09/11 09:44:45;;;;;;;16.15;11.43;;;;;;;16.81;100.00;101901.63;5023708;28;20067;-59
2022/09/11 09:47:14;;;;;;;26.58;20.88;;;;;;;16.83;100.00;101894.72;5068399;28;20051;-58
2022/09/11 09:49:42;;;;;;;15.68;13.52;;;;;;;16.88;100.00;101890.31;5067141;28;20498;-58
2022/09/11 09:52:18;;;;;;;22.13;18.85;;;;;;;16.92;100.00;101903.22;5069858;28;20547;-56
2022/09/11 09:54:55;;;;;;;18.90;15.77;;;;;;;16.93;100.00;101893.88;5058438;28;20396;-59
2022/09/11 09:57:25;;;;;;;11.60;8.80;;;;;;;16.98;100.00;101891.06;5053749;28;20045;-58
2022/09/11 10:00:20;;;;;;;20.65;16.45;;;;;;;17.01;100.00;101896.00;5067864;28;20051;-55
2022/09/11 10:02:55;;;;;;;20.27;15.63;;;;;;;17.03;100.00;101892.97;5065235;28;20509;-58
2022/09/11 10:05:23;;;;;;;18.73;15.17;;;;;;;17.01;100.00;101898.75;5053596;28;20040;-55
2022/09/11 10:08:02;;;;;;;23.00;20.10;;;;;;;17.04;100.00;101889.09;5058758;28;20333;-56
2022/09/11 10:10:38;;;;;;;19.83;16.20;;;;;;;17.04;100.00;101889.09;5070521;28;20040;-57
2022/09/11 10:13:27;;;;;;;19.50;15.23;;;;;;;17.06;100.00;101891.59;5047600;28;20076;-57
2022/09/11 10:16:00;;;;;;;20.25;17.45;;;;;;;17.08;100.00;101897.59;5055036;28;20051;-55
2022/09/11 10:18:34;;;;;;;19.95;16.98;;;;;;;17.14;100.00;101901.97;5047016;28;20051;-59
2022/09/11 10:21:11;;;;;;;22.33;17.08;;;;;;;17.12;100.00;101895.94;5056147;28;20494;-56
2022/09/11 10:23:53;;;;;;;24.48;19.05;;;;;;;17.11;100.00;101899.81;5057165;28;20048;-59
2022/09/11 10:26:46;;;;;;;20.98;17.25;;;;;;;17.10;100.00;101909.16;5068711;28;20037;-56
2022/09/11 10:29:16;;;;;;;14.45;11.35;;;;;;;17.11;100.00;101905.31;5069130;28;20040;-58
2022/09/11 10:31:58;;;;;;;18.20;15.30;;;;;;;17.13;100.00;101900.34;5069515;28;20044;-59
2022/09/11 10:34:27;;;;;;;24.02;20.02;;;;;;;17.14;100.00;101899.22;5069200;28;20050;-58
2022/09/11 10:37:14;;;;;;;19.00;14.95;;;;;;;17.17;100.00;101901.41;5049067;28;20044;-58
2022/09/11 10:39:45;;;;;;;22.00;18.05;;;;;;;17.19;100.00;101901.94;5063231;28;20036;-57
2022/09/11 10:42:22;;;;;;;12.95;9.27;;;;;;;17.25;100.00;101898.06;5034269;28;20418;-59
2022/09/11 10:44:51;;;;;;;24.13;18.05;;;;;;;17.34;100.00;101899.09;5065505;28;20052;-57
2022/09/11 10:47:32;;;;;;;23.52;18.10;;;;;;;17.37;100.00;101894.94;5061436;28;20057;-58
2022/09/11 10:50:21;;;;;;;25.30;19.65;;;;;;;17.38;100.00;101893.81;5067429;28;20048;-58
2022/09/11 10:53:03;;;;;;;21.60;17.45;;;;;;;17.44;100.00;101893.50;5067037;28;20414;-55
2022/09/11 10:55:35;;;;;;;22.25;19.90;;;;;;;17.50;100.00;101896.19;5055170;28;20503;-59
2022/09/11 10:58:16;;;;;;;24.15;18.42;;;;;;;17.55;100.00;101890.66;5069318;28;20050;-58
2022/09/11 11:00:43;;;;;;;22.70;19.42;;;;;;;17.60;100.00;101888.66;5056294;28;20036;-57
2022/09/11 11:03:16;;;;;;;22.85;19.10;;;;;;;17.67;100.00;101891.06;5068934;28;20047;-59
2022/09/11 11:05:56;;;;;;;24.40;20.92;;;;;;;17.76;100.00;101888.53;5065458;28;20094;-58
2022/09/11 11:08:44;;;;;;;16.00;13.05;;;;;;;17.84;100.00;101891.50;5064100;28;20059;-60
2022/09/11 11:11:50;;;;;;;11.93;8.90;;;;;;;17.88;100.00;101900.00;5059654;28;20492;-59
2022/09/11 11:14:42;;;;;;;23.45;19.52;;;;;;;17.95;100.00;101894.97;5068195;28;20048;-57
2022/09/11 11:17:41;;;;;;;20.08;16.08;;;;;;;18.01;100.00;101896.56;5062251;28;20040;-56
2022/09/11 11:20:30;;;;;;;23.15;19.05;;;;;;;18.01;100.00;101896.56;5062838;28;20045;-59
2022/09/11 11:23:07;;;;;;;12.40;9.15;;;;;;;17.96;100.00;101899.38;5064927;28;20042;-57
2022/09/11 11:25:57;;;;;;;18.20;14.48;;;;;;;17.95;100.00;101908.78;5063760;28;20055;-56
2022/09/11 11:28:53;;;;;;;17.08;14.70;;;;;;;17.94;100.00;101900.78;5060989;28;20048;-59
2022/09/11 11:31:26;;;;;;;18.20;15.82;;;;;;;17.93;100.00;101904.66;5059092;28;20441;-58
2022/09/11 11:34:12;;;;;;;15.75;13.77;;;;;;;17.91;100.00;101893.91;5049959;28;20047;-57
2022/09/11 11:36:56;;;;;;;22.20;18.73;;;;;;;17.95;100.00;101899.69;5068750;28;20044;-59